sensor_id;sensor_type;location;lat;lon;timestamp;pressure;altitude;pressure_sealevel;temperature;humidity
68889;BME280;55930;47.412;8.790;2024-02-15T00:01:58;95334.44;;;4.89;100.00
68889;BME280;55930;47.412;8.790;2024-02-15T00:05:18;95336.69;;;4.90;100.00
68889;BME280;55930;47.412;8.790;2024-02-15T00:08:38;95343.44;;;4.91;100.00
68889;BME280;55930;47.412;8.790;2024-02-15T00:11:59;95342.53;;;4.78;100.00
68889;BME280;55930;47.412;8.790;2024-02-15T00:15:19;95347.38;;;4.80;100.00
68889;BME280;55930;47.412;8.790;2024-02-15T00:18:40;95352.44;;;4.71;100.00
68889;BME280;55930;47.412;8.790;2024-02-15T00:22:00;95356.94;;;4.70;100.00
68889;BME280;55930;47.412;8.790;2024-02-15T00:25:21;95362.34;;;4.59;100.00
68889;BME280;55930;47.412;8.790;2024-02-15T00:28:42;95369.09;;;4.60;100.00
68889;BME280;55930;47.412;8.790;2024-02-15T00:32:02;95366.22;;;4.51;100.00
68889;BME280;55930;47.412;8.790;2024-02-15T00:35:23;95381.72;;;4.46;100.00
68889;BME280;55930;47.412;8.790;2024-02-15T00:38:44;95389.69;;;4.39;100.00
68889;BME280;55930;47.412;8.790;2024-02-15T00:42:05;95384.38;;;4.42;100.00
68889;BME280;55930;47.412;8.790;2024-02-15T00:45:29;95391.16;;;4.40;100.00
68889;BME280;55930;47.412;8.790;2024-02-15T00:48:49;95398.00;;;4.34;100.00
68889;BME280;55930;47.412;8.790;2024-02-15T00:52:10;95396.22;;;4.27;100.00
68889;BME280;55930;47.412;8.790;2024-02-15T00:55:30;95391.47;;;4.18;100.00
68889;BME280;55930;47.412;8.790;2024-02-15T00:58:50;95388.75;;;4.26;100.00
68889;BME280;55930;47.412;8.790;2024-02-15T01:02:11;95387.22;;;4.28;100.00
68889;BME280;55930;47.412;8.790;2024-02-15T01:05:32;95397.06;;;4.20;100.00
68889;BME280;55930;47.412;8.790;2024-02-15T01:08:54;95410.59;;;4.19;100.00
68889;BME280;55930;47.412;8.790;2024-02-15T01:12:15;95405.72;;;4.17;100.00
68889;BME280;55930;47.412;8.790;2024-02-15T01:15:35;95407.31;;;4.11;100.00
68889;BME280;55930;47.412;8.790;2024-02-15T01:18:57;95416.44;;;4.00;100.00
68889;BME280;55930;47.412;8.790;2024-02-15T01:22:17;95413.78;;;4.03;100.00
68889;BME280;55930;47.412;8.790;2024-02-15T01:25:38;95424.56;;;4.12;100.00
68889;BME280;55930;47.412;8.790;2024-02-15T01:29:00;95419.03;;;4.03;100.00
68889;BME280;55930;47.412;8.790;2024-02-15T01:32:20;95407.13;;;3.99;100.00
68889;BME280;55930;47.412;8.790;2024-02-15T01:35:40;95409.28;;;4.04;100.00
68889;BME280;55930;47.412;8.790;2024-02-15T01:39:01;95413.41;;;4.05;100.00
68889;BME280;55930;47.412;8.790;2024-02-15T01:42:21;95406.41;;;3.95;100.00
68889;BME280;55930;47.412;8.790;2024-02-15T01:45:42;95410.91;;;3.94;100.00
68889;BME280;55930;47.412;8.790;2024-02-15T01:49:03;95407.84;;;3.99;100.00
68889;BME280;55930;47.412;8.790;2024-02-15T01:52:25;95409.38;;;3.97;100.00
68889;BME280;55930;47.412;8.790;2024-02-15T01:55:46;95408.38;;;3.87;100.00
68889;BME280;55930;47.412;8.790;2024-02-15T01:59:09;95405.72;;;3.91;100.00
68889;BME280;55930;47.412;8.790;2024-02-15T02:02:31;95402.75;;;3.85;100.00
68889;BME280;55930;47.412;8.790;2024-02-15T02:05:55;95402.00;;;3.88;100.00
68889;BME280;55930;47.412;8.790;2024-02-15T02:09:16;95395.94;;;3.91;100.00
68889;BME280;55930;47.412;8.790;2024-02-15T02:12:37;95397.34;;;3.99;100.00
68889;BME280;55930;47.412;8.790;2024-02-15T02:15:59;95385.84;;;3.90;100.00
68889;BME280;55930;47.412;8.790;2024-02-15T02:19:20;95381.78;;;3.85;100.00
68889;BME280;55930;47.412;8.790;2024-02-15T02:22:41;95379.13;;;3.89;100.00
68889;BME280;55930;47.412;8.790;2024-02-15T02:26:01;95374.22;;;3.91;100.00
68889;BME280;55930;47.412;8.790;2024-02-15T02:29:22;95372.97;;;3.68;100.00
68889;BME280;55930;47.412;8.790;2024-02-15T02:32:43;95373.03;;;3.65;100.00
68889;BME280;55930;47.412;8.790;2024-02-15T02:36:03;95373.69;;;3.72;100.00
68889;BME280;55930;47.412;8.790;2024-02-15T02:39:32;95377.84;;;3.70;100.00
68889;BME280;55930;47.412;8.790;2024-02-15T02:42:54;95375.13;;;3.77;100.00
68889;BME280;55930;47.412;8.790;2024-02-15T02:46:19;95370.22;;;3.79;100.00
68889;BME280;55930;47.412;8.790;2024-02-15T02:49:40;95366.56;;;3.73;100.00
68889;BME280;55930;47.412;8.790;2024-02-15T02:53:01;95368.75;;;3.78;100.00
68889;BME280;55930;47.412;8.790;2024-02-15T02:56:21;95364.63;;;3.77;100.00
68889;BME280;55930;47.412;8.790;2024-02-15T02:59:41;95361.25;;;3.76;100.00
68889;BME280;55930;47.412;8.790;2024-02-15T03:03:02;95369.13;;;3.76;100.00
68889;BME280;55930;47.412;8.790;2024-02-15T03:06:27;95366.00;;;3.89;100.00
68889;BME280;55930;47.412;8.790;2024-02-15T03:09:48;95358.22;;;3.81;100.00
68889;BME280;55930;47.412;8.790;2024-02-15T03:13:08;95362.72;;;3.81;100.00
68889;BME280;55930;47.412;8.790;2024-02-15T03:16:32;95359.09;;;3.71;100.00
68889;BME280;55930;47.412;8.790;2024-02-15T03:19:53;95357.72;;;3.60;100.00
68889;BME280;55930;47.412;8.790;2024-02-15T03:23:13;95362.91;;;3.67;100.00
68889;BME280;55930;47.412;8.790;2024-02-15T03:26:34;95361.13;;;3.57;100.00
68889;BME280;55930;47.412;8.790;2024-02-15T03:29:58;95364.91;;;3.52;100.00
68889;BME280;55930;47.412;8.790;2024-02-15T03:33:20;95372.94;;;3.41;100.00
68889;BME280;55930;47.412;8.790;2024-02-15T03:36:46;95374.34;;;3.50;100.00
68889;BME280;55930;47.412;8.790;2024-02-15T03:40:08;95373.59;;;3.49;100.00
68889;BME280;55930;47.412;8.790;2024-02-15T03:43:28;95377.72;;;3.46;100.00
68889;BME280;55930;47.412;8.790;2024-02-15T03:46:54;95376.41;;;3.31;100.00
68889;BME280;55930;47.412;8.790;2024-02-15T03:50:15;95384.63;;;3.33;100.00
68889;BME280;55930;47.412;8.790;2024-02-15T03:53:36;95383.13;;;3.32;100.00
68889;BME280;55930;47.412;8.790;2024-02-15T03:56:57;95383.66;;;3.17;100.00
68889;BME280;55930;47.412;8.790;2024-02-15T04:00:17;95383.66;;;3.17;100.00
68889;BME280;55930;47.412;8.790;2024-02-15T04:03:41;95392.28;;;3.14;100.00
68889;BME280;55930;47.412;8.790;2024-02-15T04:07:01;95390.56;;;3.00;100.00
68889;BME280;55930;47.412;8.790;2024-02-15T04:10:22;95393.13;;;3.07;100.00
68889;BME280;55930;47.412;8.790;2024-02-15T04:13:43;95400.16;;;3.14;100.00
68889;BME280;55930;47.412;8.790;2024-02-15T04:17:04;95393.25;;;2.93;100.00
68889;BME280;55930;47.412;8.790;2024-02-15T04:20:25;95396.09;;;3.09;100.00
68889;BME280;55930;47.412;8.790;2024-02-15T04:23:46;95395.06;;;2.99;100.00
68889;BME280;55930;47.412;8.790;2024-02-15T04:27:07;95391.31;;;2.97;100.00
68889;BME280;55930;47.412;8.790;2024-02-15T04:30:37;95399.19;;;2.97;100.00
68889;BME280;55930;47.412;8.790;2024-02-15T04:33:58;95396.94;;;2.99;100.00
68889;BME280;55930;47.412;8.790;2024-02-15T04:37:19;95396.63;;;2.93;100.00
68889;BME280;55930;47.412;8.790;2024-02-15T04:40:40;95398.13;;;2.91;100.00
68889;BME280;55930;47.412;8.790;2024-02-15T04:44:01;95396.63;;;2.90;100.00
68889;BME280;55930;47.412;8.790;2024-02-15T04:47:22;95399.63;;;2.92;100.00
68889;BME280;55930;47.412;8.790;2024-02-15T04:50:42;95398.56;;;2.86;100.00
68889;BME280;55930;47.412;8.790;2024-02-15T04:54:03;95400.03;;;2.87;100.00
68889;BME280;55930;47.412;8.790;2024-02-15T04:57:23;95399.75;;;2.78;100.00
68889;BME280;55930;47.412;8.790;2024-02-15T05:00:44;95415.16;;;2.65;100.00
68889;BME280;55930;47.412;8.790;2024-02-15T05:04:04;95424.94;;;2.61;100.00
68889;BME280;55930;47.412;8.790;2024-02-15T05:07:26;95431.78;;;2.44;100.00
68889;BME280;55930;47.412;8.790;2024-02-15T05:10:46;95434.81;;;2.39;100.00
68889;BME280;55930;47.412;8.790;2024-02-15T05:14:07;95436.25;;;2.47;100.00
68889;BME280;55930;47.412;8.790;2024-02-15T05:17:28;95447.50;;;2.44;100.00
68889;BME280;55930;47.412;8.790;2024-02-15T05:20:51;95439.25;;;2.46;100.00
68889;BME280;55930;47.412;8.790;2024-02-15T05:24:13;95436.59;;;2.49;100.00
68889;BME280;55930;47.412;8.790;2024-02-15T05:27:34;95440.72;;;2.50;100.00
68889;BME280;55930;47.412;8.790;2024-02-15T05:31:16;95437.66;;;2.62;100.00
68889;BME280;55930;47.412;8.790;2024-02-15T05:34:40;95435.00;;;2.66;100.00
68889;BME280;55930;47.412;8.790;2024-02-15T05:38:00;95438.78;;;2.61;100.00
68889;BME280;55930;47.412;8.790;2024-02-15T05:41:24;95435.53;;;2.43;100.00
68889;BME280;55930;47.412;8.790;2024-02-15T05:44:44;95447.13;;;2.46;100.00
68889;BME280;55930;47.412;8.790;2024-02-15T05:48:06;95451.66;;;2.35;100.00
68889;BME280;55930;47.412;8.790;2024-02-15T05:51:27;95456.47;;;2.43;100.00
68889;BME280;55930;47.412;8.790;2024-02-15T05:54:47;95457.22;;;2.44;100.00
68889;BME280;55930;47.412;8.790;2024-02-15T05:58:08;95448.56;;;2.50;100.00
68889;BME280;55930;47.412;8.790;2024-02-15T06:01:30;95454.59;;;2.44;100.00
68889;BME280;55930;47.412;8.790;2024-02-15T06:04:51;95456.94;;;2.27;100.00
68889;BME280;55930;47.412;8.790;2024-02-15T06:08:13;95458.13;;;2.12;100.00
68889;BME280;55930;47.412;8.790;2024-02-15T06:11:33;95452.53;;;2.10;100.00
68889;BME280;55930;47.412;8.790;2024-02-15T06:14:54;95458.94;;;1.99;100.00
68889;BME280;55930;47.412;8.790;2024-02-15T06:18:14;95461.91;;;2.04;100.00
68889;BME280;55930;47.412;8.790;2024-02-15T06:21:36;95470.09;;;2.13;100.00
68889;BME280;55930;47.412;8.790;2024-02-15T06:24:57;95463.38;;;2.09;100.00
68889;BME280;55930;47.412;8.790;2024-02-15T06:28:17;95474.97;;;2.11;100.00
68889;BME280;55930;47.412;8.790;2024-02-15T06:31:56;95465.66;;;2.00;100.00
68889;BME280;55930;47.412;8.790;2024-02-15T06:35:36;95470.09;;;2.13;100.00
68889;BME280;55930;47.412;8.790;2024-02-15T06:39:15;95472.31;;;2.18;100.00
68889;BME280;55930;47.412;8.790;2024-02-15T06:42:54;95465.50;;;2.31;100.00
68889;BME280;55930;47.412;8.790;2024-02-15T06:46:14;95472.25;;;2.29;100.00
68889;BME280;55930;47.412;8.790;2024-02-15T06:49:35;95476.28;;;2.44;100.00
68889;BME280;55930;47.412;8.790;2024-02-15T06:52:55;95479.97;;;2.54;100.00
68889;BME280;55930;47.412;8.790;2024-02-15T06:56:16;95475.78;;;2.63;100.00
68889;BME280;55930;47.412;8.790;2024-02-15T06:59:36;95476.88;;;2.69;100.00
68889;BME280;55930;47.412;8.790;2024-02-15T07:02:59;95471.22;;;2.75;100.00
68889;BME280;55930;47.412;8.790;2024-02-15T07:06:22;95480.91;;;2.81;100.00
68889;BME280;55930;47.412;8.790;2024-02-15T07:09:43;95479.16;;;3.16;100.00
68889;BME280;55930;47.412;8.790;2024-02-15T07:13:03;95475.72;;;3.63;100.00
68889;BME280;55930;47.412;8.790;2024-02-15T07:16:26;95464.50;;;5.74;100.00
68889;BME280;55930;47.412;8.790;2024-02-15T07:19:47;95366.97;;;7.97;100.00
68889;BME280;55930;47.412;8.790;2024-02-15T07:23:09;95270.56;;;9.31;100.00
68889;BME280;55930;47.412;8.790;2024-02-15T07:26:29;95177.75;;;10.32;100.00
68889;BME280;55930;47.412;8.790;2024-02-15T07:29:50;95129.03;;;11.83;100.00
68889;BME280;55930;47.412;8.790;2024-02-15T07:33:10;95063.47;;;14.89;82.76
68889;BME280;55930;47.412;8.790;2024-02-15T07:36:31;95024.88;;;16.68;65.18
68889;BME280;55930;47.412;8.790;2024-02-15T07:39:52;94998.53;;;17.97;55.03
68889;BME280;55930;47.412;8.790;2024-02-15T07:43:13;95012.50;;;14.36;59.15
68889;BME280;55930;47.412;8.790;2024-02-15T07:46:33;95080.91;;;10.64;88.49
68889;BME280;55930;47.412;8.790;2024-02-15T07:49:54;95096.78;;;9.15;100.00
68889;BME280;55930;47.412;8.790;2024-02-15T07:53:15;95103.84;;;9.18;100.00
68889;BME280;55930;47.412;8.790;2024-02-15T07:56:36;95064.72;;;12.91;100.00
68889;BME280;55930;47.412;8.790;2024-02-15T07:59:59;95004.66;;;16.78;72.21
68889;BME280;55930;47.412;8.790;2024-02-15T08:03:19;95005.97;;;13.30;73.22
68889;BME280;55930;47.412;8.790;2024-02-15T08:06:40;95048.25;;;12.05;nan
68889;BME280;55930;47.412;8.790;2024-02-15T08:10:02;95058.81;;;11.09;100.00
68889;BME280;55930;47.412;8.790;2024-02-15T08:13:23;95058.16;;;12.04;100.00
68889;BME280;55930;47.412;8.790;2024-02-15T08:16:48;95052.41;;;12.20;100.00
68889;BME280;55930;47.412;8.790;2024-02-15T08:20:12;95030.22;;;12.53;100.00
68889;BME280;55930;47.412;8.790;2024-02-15T08:23:33;95018.47;;;12.30;100.00
68889;BME280;55930;47.412;8.790;2024-02-15T08:26:53;95025.13;;;11.48;100.00
68889;BME280;55930;47.412;8.790;2024-02-15T08:30:16;95015.47;;;11.84;100.00
68889;BME280;55930;47.412;8.790;2024-02-15T08:33:37;95003.00;;;11.90;100.00
68889;BME280;55930;47.412;8.790;2024-02-15T08:36:58;94987.34;;;11.92;100.00
68889;BME280;55930;47.412;8.790;2024-02-15T08:40:19;94985.34;;;12.02;100.00
68889;BME280;55930;47.412;8.790;2024-02-15T08:43:46;94986.44;;;11.95;100.00
68889;BME280;55930;47.412;8.790;2024-02-15T08:47:08;94979.75;;;12.14;100.00
68889;BME280;55930;47.412;8.790;2024-02-15T08:50:31;94961.78;;;12.24;100.00
68889;BME280;55930;47.412;8.790;2024-02-15T08:53:51;94945.00;;;13.58;98.27
68889;BME280;55930;47.412;8.790;2024-02-15T08:57:12;94926.69;;;14.43;88.02
68889;BME280;55930;47.412;8.790;2024-02-15T09:00:35;94908.44;;;15.15;83.14
68889;BME280;55930;47.412;8.790;2024-02-15T09:03:57;94895.06;;;16.75;74.89
68889;BME280;55930;47.412;8.790;2024-02-15T09:07:17;94889.72;;;16.64;70.12
68889;BME280;55930;47.412;8.790;2024-02-15T09:10:38;94880.84;;;17.02;66.84
68889;BME280;55930;47.412;8.790;2024-02-15T09:13:59;94860.91;;;18.26;61.34
68889;BME280;55930;47.412;8.790;2024-02-15T09:17:19;94849.91;;;18.54;56.52
68889;BME280;55930;47.412;8.790;2024-02-15T09:20:40;94868.41;;;17.68;61.37
68889;BME280;55930;47.412;8.790;2024-02-15T09:24:05;94870.66;;;16.90;65.32
68889;BME280;55930;47.412;8.790;2024-02-15T09:27:26;94853.25;;;18.36;60.78
68889;BME280;55930;47.412;8.790;2024-02-15T09:30:46;94836.94;;;19.82;56.01
68889;BME280;55930;47.412;8.790;2024-02-15T09:34:07;94808.66;;;22.35;47.94
68889;BME280;55930;47.412;8.790;2024-02-15T09:37:29;94790.75;;;23.17;43.61
68889;BME280;55930;47.412;8.790;2024-02-15T09:40:50;94793.97;;;23.52;43.83
68889;BME280;55930;47.412;8.790;2024-02-15T09:44:11;94787.75;;;22.93;42.89
68889;BME280;55930;47.412;8.790;2024-02-15T09:47:35;94778.91;;;22.07;44.49
68889;BME280;55930;47.412;8.790;2024-02-15T09:51:01;94773.03;;;21.54;45.35
68889;BME280;55930;47.412;8.790;2024-02-15T09:54:21;94770.75;;;22.48;46.33
68889;BME280;55930;47.412;8.790;2024-02-15T09:57:44;94760.94;;;23.02;43.61
68889;BME280;55930;47.412;8.790;2024-02-15T10:01:08;94756.69;;;22.78;43.58
68889;BME280;55930;47.412;8.790;2024-02-15T10:04:30;94764.69;;;22.99;44.44
68889;BME280;55930;47.412;8.790;2024-02-15T10:07:54;94776.97;;;20.92;46.82
68889;BME280;55930;47.412;8.790;2024-02-15T10:11:15;94794.34;;;19.48;50.59
68889;BME280;55930;47.412;8.790;2024-02-15T10:14:36;94793.81;;;19.13;51.86
68889;BME280;55930;47.412;8.790;2024-02-15T10:17:56;94763.19;;;20.30;49.54
68889;BME280;55930;47.412;8.790;2024-02-15T10:21:28;94718.88;;;25.31;42.68
68889;BME280;55930;47.412;8.790;2024-02-15T10:24:49;94716.66;;;25.95;39.43
68889;BME280;55930;47.412;8.790;2024-02-15T10:28:14;94718.38;;;27.28;36.43
68889;BME280;55930;47.412;8.790;2024-02-15T10:31:36;94705.47;;;26.67;37.51
68889;BME280;55930;47.412;8.790;2024-02-15T10:34:59;94709.41;;;26.14;36.93
68889;BME280;55930;47.412;8.790;2024-02-15T10:38:25;94709.53;;;26.58;36.37
68889;BME280;55930;47.412;8.790;2024-02-15T10:41:47;94715.13;;;25.84;37.06
68889;BME280;55930;47.412;8.790;2024-02-15T10:45:08;94722.34;;;27.00;35.80
68889;BME280;55930;47.412;8.790;2024-02-15T10:48:30;94730.19;;;27.13;34.89
68889;BME280;55930;47.412;8.790;2024-02-15T10:51:55;94726.81;;;23.81;40.81
68889;BME280;55930;47.412;8.790;2024-02-15T10:55:35;94702.56;;;29.53;31.94
68889;BME280;55930;47.412;8.790;2024-02-15T10:59:18;94721.97;;;28.49;32.24
68889;BME280;55930;47.412;8.790;2024-02-15T11:02:44;94726.50;;;27.45;32.22
68889;BME280;55930;47.412;8.790;2024-02-15T11:06:09;94719.22;;;27.94;32.72
68889;BME280;55930;47.412;8.790;2024-02-15T11:09:30;94726.22;;;27.77;33.27
68889;BME280;55930;47.412;8.790;2024-02-15T11:12:51;94729.31;;;27.64;34.81
68889;BME280;55930;47.412;8.790;2024-02-15T11:16:41;94724.06;;;25.77;35.07
68889;BME280;55930;47.412;8.790;2024-02-15T11:20:03;94733.84;;;22.30;42.26
68889;BME280;55930;47.412;8.790;2024-02-15T11:23:29;94727.00;;;21.25;43.30
68889;BME280;55930;47.412;8.790;2024-02-15T11:26:50;94726.56;;;21.55;44.99
68889;BME280;55930;47.412;8.790;2024-02-15T11:30:11;94712.25;;;23.17;41.66
68889;BME280;55930;47.412;8.790;2024-02-15T11:33:34;94703.91;;;27.08;34.96
68889;BME280;55930;47.412;8.790;2024-02-15T11:36:57;94694.44;;;27.63;30.85
68889;BME280;55930;47.412;8.790;2024-02-15T11:47:11;94697.47;;;27.40;34.29
68889;BME280;55930;47.412;8.790;2024-02-15T11:50:34;94684.38;;;26.85;33.10
68889;BME280;55930;47.412;8.790;2024-02-15T11:54:01;94687.63;;;28.85;33.03
68889;BME280;55930;47.412;8.790;2024-02-15T11:57:25;94685.81;;;27.93;33.99
68889;BME280;55930;47.412;8.790;2024-02-15T12:01:02;94689.41;;;27.32;33.53
68889;BME280;55930;47.412;8.790;2024-02-15T12:04:41;94688.59;;;29.68;33.40
68889;BME280;55930;47.412;8.790;2024-02-15T12:08:20;94685.81;;;28.03;31.79
68889;BME280;55930;47.412;8.790;2024-02-15T12:12:00;94677.94;;;29.94;31.87
68889;BME280;55930;47.412;8.790;2024-02-15T12:15:38;94680.88;;;30.50;30.07
68889;BME280;55930;47.412;8.790;2024-02-15T12:19:17;94671.47;;;29.89;30.82
68889;BME280;55930;47.412;8.790;2024-02-15T12:22:47;94672.13;;;30.52;30.82
68889;BME280;55930;47.412;8.790;2024-02-15T12:26:07;94673.53;;;27.12;33.49
68889;BME280;55930;47.412;8.790;2024-02-15T12:29:28;94660.31;;;24.81;37.36
68889;BME280;55930;47.412;8.790;2024-02-15T12:32:49;94658.94;;;22.02;40.51
68889;BME280;55930;47.412;8.790;2024-02-15T12:36:10;94657.16;;;22.41;41.19
68889;BME280;55930;47.412;8.790;2024-02-15T12:39:30;94648.34;;;23.07;40.32
68889;BME280;55930;47.412;8.790;2024-02-15T12:42:53;94645.38;;;23.48;40.46
68889;BME280;55930;47.412;8.790;2024-02-15T12:46:18;94651.09;;;24.13;38.08
68889;BME280;55930;47.412;8.790;2024-02-15T12:49:38;94634.72;;;23.73;38.94
68889;BME280;55930;47.412;8.790;2024-02-15T12:52:59;94628.03;;;23.74;40.48
68889;BME280;55930;47.412;8.790;2024-02-15T12:56:22;94617.09;;;25.82;37.91
68889;BME280;55930;47.412;8.790;2024-02-15T12:59:44;94603.63;;;27.60;35.30
68889;BME280;55930;47.412;8.790;2024-02-15T13:03:05;94601.66;;;27.90;35.15
68889;BME280;55930;47.412;8.790;2024-02-15T13:06:28;94594.25;;;28.29;33.25
68889;BME280;55930;47.412;8.790;2024-02-15T13:09:50;94593.19;;;27.95;32.79
68889;BME280;55930;47.412;8.790;2024-02-15T13:13:11;94590.69;;;27.15;34.83
68889;BME280;55930;47.412;8.790;2024-02-15T13:16:31;94580.50;;;27.52;33.48
68889;BME280;55930;47.412;8.790;2024-02-15T13:19:52;94596.94;;;28.00;32.17
68889;BME280;55930;47.412;8.790;2024-02-15T13:23:22;94596.56;;;26.40;36.05
68889;BME280;55930;47.412;8.790;2024-02-15T13:26:44;94585.84;;;26.08;35.29
68889;BME280;55930;47.412;8.790;2024-02-15T13:30:05;94584.81;;;25.86;36.72
68889;BME280;55930;47.412;8.790;2024-02-15T13:33:29;94572.16;;;24.01;39.24
68889;BME280;55930;47.412;8.790;2024-02-15T13:36:52;94574.81;;;22.49;41.98
68889;BME280;55930;47.412;8.790;2024-02-15T13:40:15;94580.50;;;22.31;43.48
68889;BME280;55930;47.412;8.790;2024-02-15T13:43:35;94574.06;;;22.41;43.08
68889;BME280;55930;47.412;8.790;2024-02-15T13:46:57;94577.44;;;21.00;45.95
68889;BME280;55930;47.412;8.790;2024-02-15T13:50:17;94585.09;;;19.81;49.17
68889;BME280;55930;47.412;8.790;2024-02-15T13:53:38;94591.53;;;18.88;50.55
68889;BME280;55930;47.412;8.790;2024-02-15T13:57:01;94593.31;;;18.66;52.78
68889;BME280;55930;47.412;8.790;2024-02-15T14:00:23;94574.19;;;18.51;53.42
68889;BME280;55930;47.412;8.790;2024-02-15T14:03:49;94580.81;;;17.70;56.10
68889;BME280;55930;47.412;8.790;2024-02-15T14:07:10;94588.94;;;18.26;56.28
68889;BME280;55930;47.412;8.790;2024-02-15T14:10:32;94579.56;;;18.70;54.67
68889;BME280;55930;47.412;8.790;2024-02-15T14:13:55;94573.03;;;19.42;52.65
68889;BME280;55930;47.412;8.790;2024-02-15T14:17:18;94575.75;;;18.97;53.76
68889;BME280;55930;47.412;8.790;2024-02-15T14:20:40;94568.41;;;18.98;52.63
68889;BME280;55930;47.412;8.790;2024-02-15T14:24:03;94560.03;;;18.69;52.75
68889;BME280;55930;47.412;8.790;2024-02-15T14:27:27;94563.31;;;19.39;53.08
68889;BME280;55930;47.412;8.790;2024-02-15T14:30:47;94559.19;;;19.52;52.06
68889;BME280;55930;47.412;8.790;2024-02-15T14:34:26;94567.31;;;18.18;54.69
68889;BME280;55930;47.412;8.790;2024-02-15T14:37:46;94572.63;;;17.81;58.01
68889;BME280;55930;47.412;8.790;2024-02-15T14:41:07;94573.75;;;17.67;59.17
68889;BME280;55930;47.412;8.790;2024-02-15T14:44:31;94568.75;;;16.98;60.22
68889;BME280;55930;47.412;8.790;2024-02-15T14:47:54;94564.06;;;17.04;61.37
68889;BME280;55930;47.412;8.790;2024-02-15T14:51:15;94561.28;;;16.50;62.87
68889;BME280;55930;47.412;8.790;2024-02-15T14:54:38;94568.84;;;15.99;65.22
68889;BME280;55930;47.412;8.790;2024-02-15T14:57:58;94574.53;;;15.67;70.24
68889;BME280;55930;47.412;8.790;2024-02-15T15:01:19;94568.00;;;15.52;71.18
68889;BME280;55930;47.412;8.790;2024-02-15T15:04:39;94570.50;;;15.22;74.93
68889;BME280;55930;47.412;8.790;2024-02-15T15:08:38;94573.66;;;14.92;79.88
68889;BME280;55930;47.412;8.790;2024-02-15T15:12:17;94570.50;;;14.77;82.42
68889;BME280;55930;47.412;8.790;2024-02-15T15:16:06;94578.41;;;14.33;87.69
68889;BME280;55930;47.412;8.790;2024-02-15T15:19:27;94576.22;;;14.31;97.88
68889;BME280;55930;47.412;8.790;2024-02-15T15:22:47;94580.22;;;13.88;100.00
68889;BME280;55930;47.412;8.790;2024-02-15T15:26:08;94588.97;;;13.94;100.00
68889;BME280;55930;47.412;8.790;2024-02-15T15:29:31;94584.38;;;13.94;100.00
68889;BME280;55930;47.412;8.790;2024-02-15T15:32:51;94583.25;;;13.64;100.00
68889;BME280;55930;47.412;8.790;2024-02-15T15:36:13;94569.72;;;13.73;100.00
68889;BME280;55930;47.412;8.790;2024-02-15T15:39:35;94574.63;;;13.86;100.00
68889;BME280;55930;47.412;8.790;2024-02-15T15:42:56;94559.56;;;13.83;100.00
68889;BME280;55930;47.412;8.790;2024-02-15T15:46:17;94584.41;;;13.52;100.00
68889;BME280;55930;47.412;8.790;2024-02-15T15:49:37;94610.00;;;13.38;100.00
68889;BME280;55930;47.412;8.790;2024-02-15T15:52:57;94617.63;;;13.19;100.00
68889;BME280;55930;47.412;8.790;2024-02-15T15:56:18;94622.28;;;12.98;100.00
68889;BME280;55930;47.412;8.790;2024-02-15T15:59:42;94640.88;;;12.67;100.00
68889;BME280;55930;47.412;8.790;2024-02-15T16:03:03;94648.41;;;12.48;100.00
68889;BME280;55930;47.412;8.790;2024-02-15T16:06:26;94639.38;;;12.60;100.00
68889;BME280;55930;47.412;8.790;2024-02-15T16:09:48;94648.38;;;12.43;100.00
68889;BME280;55930;47.412;8.790;2024-02-15T16:13:09;94643.19;;;12.34;100.00
68889;BME280;55930;47.412;8.790;2024-02-15T16:16:29;94653.44;;;12.00;100.00
68889;BME280;55930;47.412;8.790;2024-02-15T16:19:49;94665.59;;;11.86;100.00
68889;BME280;55930;47.412;8.790;2024-02-15T16:23:10;94669.63;;;11.82;100.00
68889;BME280;55930;47.412;8.790;2024-02-15T16:26:30;94653.03;;;11.87;100.00
68889;BME280;55930;47.412;8.790;2024-02-15T16:29:51;94674.72;;;11.65;100.00
68889;BME280;55930;47.412;8.790;2024-02-15T16:33:11;94688.06;;;11.71;100.00
68889;BME280;55930;47.412;8.790;2024-02-15T16:36:31;94694.41;;;11.44;100.00
68889;BME280;55930;47.412;8.790;2024-02-15T16:39:54;94694.16;;;11.27;100.00
68889;BME280;55930;47.412;8.790;2024-02-15T16:43:17;94707.28;;;11.16;100.00
68889;BME280;55930;47.412;8.790;2024-02-15T16:46:38;94713.56;;;11.19;100.00
68889;BME280;55930;47.412;8.790;2024-02-15T16:49:58;94713.56;;;10.89;100.00
68889;BME280;55930;47.412;8.790;2024-02-15T16:53:20;94716.88;;;10.99;100.00
68889;BME280;55930;47.412;8.790;2024-02-15T16:56:41;94721.69;;;10.86;100.00
68889;BME280;55930;47.412;8.790;2024-02-15T17:00:02;94713.91;;;10.82;100.00
68889;BME280;55930;47.412;8.790;2024-02-15T17:03:27;94712.16;;;10.79;100.00
68889;BME280;55930;47.412;8.790;2024-02-15T17:06:47;94727.72;;;10.71;100.00
68889;BME280;55930;47.412;8.790;2024-02-15T17:10:09;94744.84;;;10.47;100.00
68889;BME280;55930;47.412;8.790;2024-02-15T17:13:30;94745.47;;;10.42;100.00
68889;BME280;55930;47.412;8.790;2024-02-15T17:16:50;94747.97;;;10.45;100.00
68889;BME280;55930;47.412;8.790;2024-02-15T17:20:14;94756.56;;;10.31;100.00
68889;BME280;55930;47.412;8.790;2024-02-15T17:23:37;94761.44;;;10.32;100.00
68889;BME280;55930;47.412;8.790;2024-02-15T17:27:00;94769.72;;;10.25;100.00
68889;BME280;55930;47.412;8.790;2024-02-15T17:30:21;94784.22;;;10.06;100.00
68889;BME280;55930;47.412;8.790;2024-02-15T17:33:41;94801.91;;;10.00;100.00
68889;BME280;55930;47.412;8.790;2024-02-15T17:37:01;94808.75;;;9.83;100.00
68889;BME280;55930;47.412;8.790;2024-02-15T17:40:22;94846.91;;;9.76;100.00
68889;BME280;55930;47.412;8.790;2024-02-15T17:43:42;94842.78;;;9.66;100.00
68889;BME280;55930;47.412;8.790;2024-02-15T17:47:06;94851.50;;;9.57;100.00
68889;BME280;55930;47.412;8.790;2024-02-15T17:50:27;94853.13;;;9.55;100.00
68889;BME280;55930;47.412;8.790;2024-02-15T17:53:48;94858.88;;;9.44;100.00
68889;BME280;55930;47.412;8.790;2024-02-15T17:57:08;94869.19;;;9.33;100.00